CDT,Max TemperatureF,Mean TemperatureF,Min TemperatureF,Max Dew PointF,MeanDew PointF,Min DewpointF,Max Humidity, Mean Humidity, Min Humidity, Max Sea Level PressureIn, Mean Sea Level PressureIn, Min Sea Level PressureIn, Max VisibilityMiles, Mean VisibilityMiles, Min VisibilityMiles, Max Wind SpeedMPH, Mean Wind SpeedMPH, Max Gust SpeedMPH,PrecipitationIn, CloudCover, Events, WindDirDegrees
2013-5-1,78,64,50,56,52,48,97,65,43,30.23,30.18,30.13,10,10,10,8,2,,0.00,1,,125
2013-5-2,76,64,53,55,52,49,89,60,45,30.24,30.19,30.13,10,10,10,9,2,,0.00,1,,133
2013-5-3,72,62,53,52,49,42,87,59,40,30.15,30.08,30.00,10,10,10,12,4,18,0.00,1,,140
2013-5-4,64,58,52,55,45,32,99,65,41,30.01,29.97,29.92,10,9,3,13,4,22,0.63,5,Rain,116
2013-5-5,55,53,51,54,50,47,98,90,82,29.95,29.86,29.81,10,8,2,8,3,20,1.22,8,Rain,111
2013-5-6,67,58,48,53,48,44,97,77,48,29.92,29.84,29.78,10,10,5,10,2,17,0.13,5,Rain,213
2013-5-7,66,56,45,56,50,45,100,84,56,29.98,29.95,29.90,10,10,5,7,1,,0.02,7,Rain,355
2013-5-8,71,62,54,60,56,53,100,87,54,30.09,30.01,29.94,10,7,0,12,1,18,0.17,7,Fog-Rain-Thunderstorm,307
2013-5-9,79,66,52,61,56,50,100,78,36,30.13,30.08,30.03,10,7,0,13,1,18,0.00,5,Fog,211
2013-5-10,71,61,52,60,56,52,100,79,61,30.09,30.01,29.94,10,8,0,13,3,21,0.05,5,Fog-Rain,195
2013-5-11,73,63,53,61,56,49,99,79,56,30.01,29.94,29.89,10,9,4,15,2,22,0.10,7,Rain,304
2013-5-12,61,50,40,51,37,28,91,57,29,30.17,30.08,30.00,10,10,7,14,5,20,0.00,3,Rain,316
2013-5-13,64,48,33,38,34,28,98,64,27,30.24,30.19,30.15,10,10,10,12,2,20,0.00,1,,312
2013-5-14,76,56,36,55,44,35,97,66,38,30.25,30.14,30.02,10,10,10,13,2,20,0.00,0,,176
2013-5-15,87,72,57,57,53,48,89,56,26,30.13,30.05,29.98,10,10,10,10,2,20,0.00,0,,259
2013-5-16,81,66,53,63,56,51,94,72,40,30.07,30.03,29.98,10,10,10,8,1,,0.00,2,Rain,251
2013-5-17,79,68,56,64,60,56,99,77,48,30.12,30.08,30.03,10,10,5,8,1,,0.11,3,Rain-Thunderstorm,194
2013-5-18,70,66,62,67,64,62,99,94,84,30.10,30.06,30.02,10,7,2,5,0,,0.12,8,Rain-Thunderstorm,215
2013-5-19,76,70,65,69,65,61,99,88,74,30.08,30.05,30.01,10,9,1,8,1,,0.20,6,Rain-Thunderstorm,170
2013-5-20,82,70,58,66,63,58,99,79,54,30.13,30.07,30.01,10,10,7,8,2,,0.00,3,Thunderstorm,173
2013-5-21,86,72,59,68,63,59,100,83,52,30.07,30.01,29.94,10,8,0,22,2,36,0.28,4,Fog-Rain-Thunderstorm,195
2013-5-22,85,71,58,65,62,58,99,78,46,29.98,29.93,29.84,10,10,1,14,2,20,0.45,4,Rain-Thunderstorm,203
2013-5-23,78,70,61,65,60,53,100,79,49,30.03,29.96,29.91,10,8,0,15,2,26,0.08,6,Fog-Rain,276
2013-5-24,67,56,45,56,45,38,95,66,36,30.32,30.22,30.04,10,10,5,14,6,22,0.01,4,Rain,349
2013-5-25,72,56,41,50,43,28,100,68,24,30.39,30.31,30.22,10,9,0,13,1,,0.00,3,Fog,13
2013-5-26,74,64,54,53,49,43,92,64,38,30.32,30.26,30.21,10,10,10,8,1,,0.00,5,,12
2013-5-27,82,66,50,57,53,49,97,66,35,30.25,30.18,30.09,10,10,10,13,2,20,0.00,0,,186
2013-5-28,84,70,56,61,58,52,96,66,33,30.20,30.14,30.09,10,10,10,13,3,25,0.00,0,,188
2013-5-29,84,72,59,65,61,57,94,70,46,30.23,30.17,30.12,10,10,7,9,2,17,0.00,1,,183
2013-5-30,86,71,57,66,61,57,98,71,40,30.26,30.18,30.11,10,9,4,9,2,16,0.00,0,,191
2013-5-31,86,72,59,64,61,59,97,66,40,30.19,30.13,30.07,10,10,10,13,3,21,0.00,1,,189